CheckWX is a tool to help pilots better visualize weather data.  It is not intended as a substitute for an official pre-flight weather briefing.

18:03:18 UTC

KLWD METAR
Lamoni Municipal Airport
Lamoni, Iowa, USA
Current

10 mins ago

KLWD 241753Z AUTO 00000KT 10SM OVC017 14/10 A2990 RMK AO2 SLP127 T01440100 10144 20094 58014
Observed
Apr-24 @ 17:53 UTC
Visibility
10 SM
Flight Rules
MVFR
Cloud Levels
  • Overcast at 1,700' AGL
Temperature
14°C / 57°F
Dewpoint
10°C / 50°F
Humidity
77%
Altimeter
29.9" Hg
Pressure
1012.52 hPa
Previous

33 mins ago

KLWD 241730Z AUTO 04003KT 10SM OVC015 14/10 A2992 RMK AO2 T01390100
Observed
Apr-24 @ 17:30 UTC
Wind
  • 040° at 3 KTS
Visibility
10 SM
Flight Rules
MVFR
Cloud Levels
  • Overcast at 1,500' AGL
Temperature
14°C / 57°F
Dewpoint
10°C / 50°F
Humidity
77%
Altimeter
29.92" Hg
Pressure
1013.22 hPa
Previous

1 hour ago

KLWD 241653Z AUTO 03004KT 10SM OVC013 13/10 A2994 RMK AO2 SLP139 T01330100
Observed
Apr-24 @ 16:53 UTC
Wind
  • 030° at 4 KTS
Visibility
10 SM
Flight Rules
MVFR
Cloud Levels
  • Overcast at 1,300' AGL
Temperature
13°C / 55°F
Dewpoint
10°C / 50°F
Humidity
82%
Altimeter
29.94" Hg
Pressure
1013.92 hPa